Singleton, New South Wales

8:38 AM AEST on August 31, 2015 (GMT +1000)
Singleton High School | | Change Station
CLOSE
Current Station
Personal Weather Station
Location: SINGLETON, NSW
Elevation: 148 ft
Nearby Weather Stations

Elev 148 ft 32.57 °S, 151.18 °E | Updated 3 days ago

Clear
Clear
56 °F
Feels Like 56 °F
N
6
Wind Variable Wind from NW
Gusts mph

Today
High -- | Low -- °F
--% Chance of Precip.
Yesterday
High -- | Low -- °F
Precip. -- in
6:14 AM 5:37 PM
Full, 98% visible
Pressure 30.04 in
Visibility 6.2 miles
Clouds Few 2000 ft
Dew Point 46 °F
Humidity 70%
Rainfall in
Snow Depth Not available.
UV 1 out of 12
Pollen Not available.
Air Quality Not available.
Flu Activity Not available.
METAR YWLM 302200Z 28008KT 9999 FEW020 12/07 Q1017 NOSIG
Pressure 30.04 in
Visibility 6.2 miles
Clouds Few 2000 ft
Dew Point 46 °F
Humidity 70%
Rainfall in
Snow Depth Not available.
UV 1 out of 12
Pollen Not available.
Air Quality Not available.
Flu Activity Not available.
METAR YWLM 302200Z 28008KT 9999 FEW020 12/07 Q1017 NOSIG

10-Day Weather Forecast

×

Almanac

Astronomy

Aug. 31, 2015 Rise Set
Actual Time
Civil Twilight
Nautical Twilight
Astronomical Twilight
Moon
Length of Visible Light
Length of Day
Tomorrow will be .
, % of the Moon is Illuminated

Today's Extremes

Country Highs Country Lows

Community

WunderPhotos

Upload Photos

1,851,074 photos uploaded!

WunderBlogs® & News

Nearby

Air Quality

  Air Quality AQ Index Pollutant
Not available.

Snow Depth

Station Depth Elevation

Earthquake Activity

City Distance Mag. Time & Date
Minimum magnitude displayed is 2.5.

Coastal Water Temperatures

Place Temperature

Stations

Nearby Weather Stations

Station Location Temp. Windchill Dew Point Humidity Wind Precip. Elev Updated Type